sensor_id;sensor_type;location;lat;lon;timestamp;temperature;humidity
16140;DHT22;8175;49.326;12.690;2023-10-19T07:31:07;8.40;99.90
16140;DHT22;8175;49.326;12.690;2023-10-19T07:33:38;8.50;99.90
16140;DHT22;8175;49.326;12.690;2023-10-19T07:36:15;8.70;99.90
16140;DHT22;8175;49.326;12.690;2023-10-19T07:38:41;8.90;99.90
16140;DHT22;8175;49.326;12.690;2023-10-19T07:41:11;9.10;99.90
16140;DHT22;8175;49.326;12.690;2023-10-19T07:43:37;9.40;99.90
16140;DHT22;8175;49.326;12.690;2023-10-19T07:46:03;9.70;99.90
16140;DHT22;8175;49.326;12.690;2023-10-19T07:48:28;9.90;99.90
16140;DHT22;8175;49.326;12.690;2023-10-19T07:50:54;10.10;99.90
16140;DHT22;8175;49.326;12.690;2023-10-19T07:53:20;10.20;99.90
16140;DHT22;8175;49.326;12.690;2023-10-19T07:55:47;10.20;99.90
16140;DHT22;8175;49.326;12.690;2023-10-19T07:58:12;10.20;99.90
16140;DHT22;8175;49.326;12.690;2023-10-19T08:00:38;10.40;99.90
16140;DHT22;8175;49.326;12.690;2023-10-19T08:03:05;10.30;99.90
16140;DHT22;8175;49.326;12.690;2023-10-19T08:05:32;10.30;99.90
16140;DHT22;8175;49.326;12.690;2023-10-19T08:07:58;10.30;99.90
16140;DHT22;8175;49.326;12.690;2023-10-19T08:10:26;10.30;99.90
16140;DHT22;8175;49.326;12.690;2023-10-19T08:12:52;10.20;99.90
16140;DHT22;8175;49.326;12.690;2023-10-19T08:15:18;10.30;99.90
16140;DHT22;8175;49.326;12.690;2023-10-19T08:17:47;10.20;99.90
16140;DHT22;8175;49.326;12.690;2023-10-19T08:20:14;10.30;99.90
16140;DHT22;8175;49.326;12.690;2023-10-19T08:22:52;10.40;99.90
16140;DHT22;8175;49.326;12.690;2023-10-19T08:25:18;10.40;99.90
16140;DHT22;8175;49.326;12.690;2023-10-19T08:27:45;10.50;99.90
16140;DHT22;8175;49.326;12.690;2023-10-19T08:30:14;10.70;99.90
16140;DHT22;8175;49.326;12.690;2023-10-19T08:32:41;10.90;99.90
16140;DHT22;8175;49.326;12.690;2023-10-19T08:35:10;10.90;99.90
16140;DHT22;8175;49.326;12.690;2023-10-19T08:37:39;10.90;99.90
16140;DHT22;8175;49.326;12.690;2023-10-19T08:40:11;10.90;99.90
16140;DHT22;8175;49.326;12.690;2023-10-19T08:42:41;11.20;99.90
16140;DHT22;8175;49.326;12.690;2023-10-19T08:45:08;11.40;99.90
16140;DHT22;8175;49.326;12.690;2023-10-19T08:47:36;11.80;99.90
16140;DHT22;8175;49.326;12.690;2023-10-19T08:50:03;12.20;99.90
16140;DHT22;8175;49.326;12.690;2023-10-19T08:52:30;12.50;99.90
16140;DHT22;8175;49.326;12.690;2023-10-19T08:54:57;12.90;99.90
16140;DHT22;8175;49.326;12.690;2023-10-19T08:57:23;13.40;99.90
16140;DHT22;8175;49.326;12.690;2023-10-19T08:59:49;13.30;99.90
16140;DHT22;8175;49.326;12.690;2023-10-19T09:02:15;13.30;99.90
16140;DHT22;8175;49.326;12.690;2023-10-19T09:04:42;13.10;99.90
16140;DHT22;8175;49.326;12.690;2023-10-19T09:07:11;13.30;99.90
16140;DHT22;8175;49.326;12.690;2023-10-19T09:09:37;13.50;99.90
16140;DHT22;8175;49.326;12.690;2023-10-19T09:12:07;14.00;99.90
16140;DHT22;8175;49.326;12.690;2023-10-19T09:14:36;14.10;99.90
16140;DHT22;8175;49.326;12.690;2023-10-19T09:17:06;14.20;99.90
16140;DHT22;8175;49.326;12.690;2023-10-19T09:19:43;14.60;99.90
16140;DHT22;8175;49.326;12.690;2023-10-19T09:22:10;14.90;99.90
16140;DHT22;8175;49.326;12.690;2023-10-19T09:24:48;15.10;99.90
16140;DHT22;8175;49.326;12.690;2023-10-19T09:27:17;16.40;99.90
16140;DHT22;8175;49.326;12.690;2023-10-19T09:29:43;17.00;99.90
16140;DHT22;8175;49.326;12.690;2023-10-19T09:32:09;16.60;99.90
16140;DHT22;8175;49.326;12.690;2023-10-19T09:34:35;16.30;99.90
16140;DHT22;8175;49.326;12.690;2023-10-19T09:37:03;16.20;99.90
16140;DHT22;8175;49.326;12.690;2023-10-19T09:39:29;16.70;99.90
16140;DHT22;8175;49.326;12.690;2023-10-19T09:42:09;16.90;99.90
16140;DHT22;8175;49.326;12.690;2023-10-19T09:44:52;17.20;99.90
16140;DHT22;8175;49.326;12.690;2023-10-19T09:47:35;17.40;99.90
16140;DHT22;8175;49.326;12.690;2023-10-19T09:50:04;17.50;99.90
16140;DHT22;8175;49.326;12.690;2023-10-19T09:52:32;16.80;99.90
16140;DHT22;8175;49.326;12.690;2023-10-19T09:57:52;16.30;99.90
16140;DHT22;8175;49.326;12.690;2023-10-19T10:00:19;16.20;99.90
16140;DHT22;8175;49.326;12.690;2023-10-19T10:02:53;16.10;99.90
16140;DHT22;8175;49.326;12.690;2023-10-19T10:10:50;15.10;99.90
16140;DHT22;8175;49.326;12.690;2023-10-19T10:15:57;14.70;99.90
16140;DHT22;8175;49.326;12.690;2023-10-19T10:18:31;14.30;99.90
16140;DHT22;8175;49.326;12.690;2023-10-19T10:23:44;14.90;99.90
16140;DHT22;8175;49.326;12.690;2023-10-19T10:26:14;15.90;99.90
16140;DHT22;8175;49.326;12.690;2023-10-19T10:28:41;16.10;99.90
16140;DHT22;8175;49.326;12.690;2023-10-19T10:31:18;16.00;99.90
16140;DHT22;8175;49.326;12.690;2023-10-19T10:33:52;15.70;99.90
16140;DHT22;8175;49.326;12.690;2023-10-19T10:36:20;15.40;99.90
16140;DHT22;8175;49.326;12.690;2023-10-19T10:38:49;15.40;99.90
16140;DHT22;8175;49.326;12.690;2023-10-19T10:43:55;14.80;99.90
16140;DHT22;8175;49.326;12.690;2023-10-19T10:46:25;14.90;99.90
16140;DHT22;8175;49.326;12.690;2023-10-19T10:48:51;15.00;99.90
16140;DHT22;8175;49.326;12.690;2023-10-19T10:51:22;14.80;99.90
16140;DHT22;8175;49.326;12.690;2023-10-19T10:53:49;14.40;99.90
16140;DHT22;8175;49.326;12.690;2023-10-19T10:56:16;14.30;99.90
16140;DHT22;8175;49.326;12.690;2023-10-19T10:58:41;14.30;99.90
16140;DHT22;8175;49.326;12.690;2023-10-19T11:01:07;14.40;99.90
16140;DHT22;8175;49.326;12.690;2023-10-19T11:03:33;14.60;99.90
16140;DHT22;8175;49.326;12.690;2023-10-19T11:06:09;14.50;99.90
16140;DHT22;8175;49.326;12.690;2023-10-19T11:08:36;14.20;99.90
16140;DHT22;8175;49.326;12.690;2023-10-19T11:11:06;13.90;99.90
16140;DHT22;8175;49.326;12.690;2023-10-19T11:13:32;13.80;99.90
16140;DHT22;8175;49.326;12.690;2023-10-19T11:16:04;13.70;99.90
16140;DHT22;8175;49.326;12.690;2023-10-19T11:18:41;13.70;99.90
16140;DHT22;8175;49.326;12.690;2023-10-19T11:21:12;13.90;99.90
16140;DHT22;8175;49.326;12.690;2023-10-19T11:23:44;14.10;99.90
16140;DHT22;8175;49.326;12.690;2023-10-19T11:26:11;14.40;99.90
16140;DHT22;8175;49.326;12.690;2023-10-19T11:28:38;14.60;99.90
16140;DHT22;8175;49.326;12.690;2023-10-19T11:31:16;14.70;99.90
16140;DHT22;8175;49.326;12.690;2023-10-19T11:33:44;14.80;99.90
16140;DHT22;8175;49.326;12.690;2023-10-19T11:36:11;14.70;99.90
16140;DHT22;8175;49.326;12.690;2023-10-19T11:38:44;14.50;99.90
16140;DHT22;8175;49.326;12.690;2023-10-19T11:41:11;14.20;99.90
16140;DHT22;8175;49.326;12.690;2023-10-19T11:43:39;13.90;99.90
16140;DHT22;8175;49.326;12.690;2023-10-19T11:46:05;13.60;99.90
16140;DHT22;8175;49.326;12.690;2023-10-19T11:48:33;13.30;99.90
16140;DHT22;8175;49.326;12.690;2023-10-19T11:50:59;13.10;99.90
16140;DHT22;8175;49.326;12.690;2023-10-19T11:53:25;12.90;99.90
16140;DHT22;8175;49.326;12.690;2023-10-19T11:55:51;13.00;99.90
16140;DHT22;8175;49.326;12.690;2023-10-19T11:58:17;13.10;99.90
16140;DHT22;8175;49.326;12.690;2023-10-19T12:00:43;13.10;99.90
16140;DHT22;8175;49.326;12.690;2023-10-19T12:03:12;13.10;99.90
16140;DHT22;8175;49.326;12.690;2023-10-19T12:05:39;13.10;99.90
16140;DHT22;8175;49.326;12.690;2023-10-19T12:08:05;13.00;99.90
16140;DHT22;8175;49.326;12.690;2023-10-19T12:10:32;13.00;99.90
16140;DHT22;8175;49.326;12.690;2023-10-19T12:13:03;13.00;99.90
16140;DHT22;8175;49.326;12.690;2023-10-19T12:15:30;13.00;99.90
16140;DHT22;8175;49.326;12.690;2023-10-19T12:17:56;12.90;99.90
16140;DHT22;8175;49.326;12.690;2023-10-19T12:20:23;12.90;99.90
16140;DHT22;8175;49.326;12.690;2023-10-19T12:22:49;12.80;99.90
16140;DHT22;8175;49.326;12.690;2023-10-19T12:25:19;12.80;99.90
16140;DHT22;8175;49.326;12.690;2023-10-19T12:27:46;12.80;99.90
16140;DHT22;8175;49.326;12.690;2023-10-19T12:30:12;12.80;99.90
16140;DHT22;8175;49.326;12.690;2023-10-19T12:32:48;12.90;99.90
16140;DHT22;8175;49.326;12.690;2023-10-19T12:35:17;12.90;99.90
16140;DHT22;8175;49.326;12.690;2023-10-19T12:37:46;13.00;99.90
16140;DHT22;8175;49.326;12.690;2023-10-19T12:40:17;13.00;99.90
16140;DHT22;8175;49.326;12.690;2023-10-19T12:42:55;13.00;99.90
16140;DHT22;8175;49.326;12.690;2023-10-19T12:45:22;13.00;99.90
16140;DHT22;8175;49.326;12.690;2023-10-19T12:47:48;13.00;99.90
16140;DHT22;8175;49.326;12.690;2023-10-19T12:50:14;13.10;99.90
16140;DHT22;8175;49.326;12.690;2023-10-19T12:52:41;13.10;99.90
16140;DHT22;8175;49.326;12.690;2023-10-19T12:55:07;13.10;99.90
16140;DHT22;8175;49.326;12.690;2023-10-19T12:57:34;13.00;99.90
16140;DHT22;8175;49.326;12.690;2023-10-19T13:00:00;13.10;99.90
16140;DHT22;8175;49.326;12.690;2023-10-19T13:02:49;13.10;99.90
16140;DHT22;8175;49.326;12.690;2023-10-19T13:05:15;13.30;99.90
16140;DHT22;8175;49.326;12.690;2023-10-19T13:07:44;13.30;99.90
16140;DHT22;8175;49.326;12.690;2023-10-19T13:10:10;13.30;99.90
16140;DHT22;8175;49.326;12.690;2023-10-19T13:12:37;13.40;99.90
16140;DHT22;8175;49.326;12.690;2023-10-19T13:15:04;13.30;99.90
16140;DHT22;8175;49.326;12.690;2023-10-19T13:17:32;13.30;99.90
16140;DHT22;8175;49.326;12.690;2023-10-19T13:20:00;13.30;99.90
16140;DHT22;8175;49.326;12.690;2023-10-19T13:22:26;13.50;99.90
16140;DHT22;8175;49.326;12.690;2023-10-19T13:24:52;13.60;99.90
16140;DHT22;8175;49.326;12.690;2023-10-19T13:27:18;13.70;99.90
16140;DHT22;8175;49.326;12.690;2023-10-19T13:29:44;13.80;99.90
16140;DHT22;8175;49.326;12.690;2023-10-19T13:32:12;13.90;99.90
16140;DHT22;8175;49.326;12.690;2023-10-19T13:34:38;14.00;99.90
16140;DHT22;8175;49.326;12.690;2023-10-19T13:37:05;14.00;99.90
16140;DHT22;8175;49.326;12.690;2023-10-19T13:39:33;14.10;99.90
16140;DHT22;8175;49.326;12.690;2023-10-19T13:41:59;13.80;99.90
16140;DHT22;8175;49.326;12.690;2023-10-19T13:44:24;13.80;99.90
16140;DHT22;8175;49.326;12.690;2023-10-19T13:46:52;13.70;99.90
16140;DHT22;8175;49.326;12.690;2023-10-19T13:49:19;13.60;99.90
16140;DHT22;8175;49.326;12.690;2023-10-19T13:51:48;13.50;99.90
16140;DHT22;8175;49.326;12.690;2023-10-19T13:54:14;13.40;99.90
16140;DHT22;8175;49.326;12.690;2023-10-19T13:56:39;13.30;99.90
16140;DHT22;8175;49.326;12.690;2023-10-19T13:59:05;13.20;99.90
16140;DHT22;8175;49.326;12.690;2023-10-19T14:01:30;13.20;99.90
16140;DHT22;8175;49.326;12.690;2023-10-19T14:03:56;13.10;99.90
16140;DHT22;8175;49.326;12.690;2023-10-19T14:06:22;13.20;99.90
16140;DHT22;8175;49.326;12.690;2023-10-19T14:08:49;13.50;99.90
16140;DHT22;8175;49.326;12.690;2023-10-19T14:11:15;13.70;99.90
16140;DHT22;8175;49.326;12.690;2023-10-19T14:13:41;13.90;99.90
16140;DHT22;8175;49.326;12.690;2023-10-19T14:16:08;14.10;99.90
16140;DHT22;8175;49.326;12.690;2023-10-19T14:18:36;14.30;99.90
16140;DHT22;8175;49.326;12.690;2023-10-19T14:21:13;14.20;99.90
16140;DHT22;8175;49.326;12.690;2023-10-19T14:23:39;14.30;99.90
16140;DHT22;8175;49.326;12.690;2023-10-19T14:26:06;14.20;99.90
16140;DHT22;8175;49.326;12.690;2023-10-19T14:28:32;14.30;99.90
16140;DHT22;8175;49.326;12.690;2023-10-19T14:30:57;14.20;99.90
16140;DHT22;8175;49.326;12.690;2023-10-19T14:33:23;14.00;99.90
16140;DHT22;8175;49.326;12.690;2023-10-19T14:35:49;13.80;99.90
16140;DHT22;8175;49.326;12.690;2023-10-19T14:38:14;13.60;99.90
16140;DHT22;8175;49.326;12.690;2023-10-19T14:40:41;13.50;99.90
16140;DHT22;8175;49.326;12.690;2023-10-19T14:43:10;13.40;99.90
16140;DHT22;8175;49.326;12.690;2023-10-19T14:45:36;13.20;99.90
16140;DHT22;8175;49.326;12.690;2023-10-19T14:48:02;13.00;99.90
16140;DHT22;8175;49.326;12.690;2023-10-19T14:50:30;12.90;99.90
16140;DHT22;8175;49.326;12.690;2023-10-19T14:52:56;12.80;99.90
16140;DHT22;8175;49.326;12.690;2023-10-19T14:55:22;12.70;99.90
16140;DHT22;8175;49.326;12.690;2023-10-19T14:57:50;12.60;99.90
16140;DHT22;8175;49.326;12.690;2023-10-19T15:00:18;12.70;99.90
16140;DHT22;8175;49.326;12.690;2023-10-19T15:02:48;12.70;99.90
16140;DHT22;8175;49.326;12.690;2023-10-19T15:05:15;12.80;99.90
16140;DHT22;8175;49.326;12.690;2023-10-19T15:07:47;12.90;99.90
16140;DHT22;8175;49.326;12.690;2023-10-19T15:10:24;12.70;99.90
16140;DHT22;8175;49.326;12.690;2023-10-19T15:12:50;12.50;99.90
16140;DHT22;8175;49.326;12.690;2023-10-19T15:15:16;12.40;99.90
16140;DHT22;8175;49.326;12.690;2023-10-19T15:17:46;12.40;99.90
16140;DHT22;8175;49.326;12.690;2023-10-19T15:20:13;12.40;99.90
16140;DHT22;8175;49.326;12.690;2023-10-19T15:22:43;12.30;99.90
16140;DHT22;8175;49.326;12.690;2023-10-19T15:25:10;12.30;99.90
16140;DHT22;8175;49.326;12.690;2023-10-19T15:27:38;12.20;99.90
16140;DHT22;8175;49.326;12.690;2023-10-19T15:30:06;12.20;99.90
16140;DHT22;8175;49.326;12.690;2023-10-19T15:32:32;12.10;99.90
16140;DHT22;8175;49.326;12.690;2023-10-19T15:34:58;12.00;99.90
16140;DHT22;8175;49.326;12.690;2023-10-19T15:37:24;12.00;99.90
16140;DHT22;8175;49.326;12.690;2023-10-19T15:39:50;11.90;99.90
16140;DHT22;8175;49.326;12.690;2023-10-19T15:42:16;11.80;99.90
16140;DHT22;8175;49.326;12.690;2023-10-19T15:44:44;11.80;99.90
16140;DHT22;8175;49.326;12.690;2023-10-19T15:47:09;11.70;99.90
16140;DHT22;8175;49.326;12.690;2023-10-19T15:49:46;11.70;99.90
16140;DHT22;8175;49.326;12.690;2023-10-19T15:52:12;11.80;99.90
16140;DHT22;8175;49.326;12.690;2023-10-19T15:54:38;11.80;99.90
16140;DHT22;8175;49.326;12.690;2023-10-19T15:57:04;11.80;99.90
16140;DHT22;8175;49.326;12.690;2023-10-19T15:59:31;11.70;99.90
16140;DHT22;8175;49.326;12.690;2023-10-19T16:01:56;11.70;99.90
16140;DHT22;8175;49.326;12.690;2023-10-19T16:04:23;11.60;99.90
16140;DHT22;8175;49.326;12.690;2023-10-19T16:06:49;11.60;99.90
16140;DHT22;8175;49.326;12.690;2023-10-19T16:09:14;11.60;99.90
16140;DHT22;8175;49.326;12.690;2023-10-19T16:11:41;11.50;99.90
16140;DHT22;8175;49.326;12.690;2023-10-19T16:14:07;11.40;99.90
16140;DHT22;8175;49.326;12.690;2023-10-19T16:16:33;11.30;99.90
16140;DHT22;8175;49.326;12.690;2023-10-19T16:18:58;11.20;99.90
16140;DHT22;8175;49.326;12.690;2023-10-19T16:21:24;11.20;99.90
16140;DHT22;8175;49.326;12.690;2023-10-19T16:23:51;11.10;99.90
16140;DHT22;8175;49.326;12.690;2023-10-19T16:26:18;11.10;99.90
16140;DHT22;8175;49.326;12.690;2023-10-19T16:28:44;11.10;99.90
16140;DHT22;8175;49.326;12.690;2023-10-19T16:31:10;11.00;99.90
16140;DHT22;8175;49.326;12.690;2023-10-19T16:33:37;11.00;99.90
16140;DHT22;8175;49.326;12.690;2023-10-19T16:36:03;10.90;99.90
16140;DHT22;8175;49.326;12.690;2023-10-19T16:38:29;10.80;99.90
16140;DHT22;8175;49.326;12.690;2023-10-19T16:41:01;10.70;99.90
16140;DHT22;8175;49.326;12.690;2023-10-19T16:43:27;10.60;99.90
16140;DHT22;8175;49.326;12.690;2023-10-19T16:45:54;10.60;99.90
16140;DHT22;8175;49.326;12.690;2023-10-19T16:48:19;10.60;99.90
16140;DHT22;8175;49.326;12.690;2023-10-19T16:50:46;10.60;99.90
16140;DHT22;8175;49.326;12.690;2023-10-19T16:53:11;10.60;99.90
16140;DHT22;8175;49.326;12.690;2023-10-19T16:55:38;10.60;99.90
16140;DHT22;8175;49.326;12.690;2023-10-19T16:58:03;10.60;99.90
16140;DHT22;8175;49.326;12.690;2023-10-19T17:00:31;10.60;99.90
16140;DHT22;8175;49.326;12.690;2023-10-19T17:02:58;10.60;99.90
16140;DHT22;8175;49.326;12.690;2023-10-19T17:05:25;10.60;99.90
16140;DHT22;8175;49.326;12.690;2023-10-19T17:07:53;10.60;99.90
16140;DHT22;8175;49.326;12.690;2023-10-19T17:10:19;10.60;99.90
16140;DHT22;8175;49.326;12.690;2023-10-19T17:12:45;10.50;99.90
16140;DHT22;8175;49.326;12.690;2023-10-19T17:15:11;10.50;99.90
16140;DHT22;8175;49.326;12.690;2023-10-19T17:17:39;10.50;99.90
16140;DHT22;8175;49.326;12.690;2023-10-19T17:20:05;10.40;99.90
16140;DHT22;8175;49.326;12.690;2023-10-19T17:22:34;10.40;99.90
16140;DHT22;8175;49.326;12.690;2023-10-19T17:25:00;10.40;99.90
16140;DHT22;8175;49.326;12.690;2023-10-19T17:27:26;10.40;99.90
16140;DHT22;8175;49.326;12.690;2023-10-19T17:29:51;10.40;99.90
16140;DHT22;8175;49.326;12.690;2023-10-19T17:32:17;10.40;99.90
16140;DHT22;8175;49.326;12.690;2023-10-19T17:34:43;10.40;99.90
16140;DHT22;8175;49.326;12.690;2023-10-19T17:37:09;10.40;99.90
16140;DHT22;8175;49.326;12.690;2023-10-19T17:39:36;10.30;99.90
16140;DHT22;8175;49.326;12.690;2023-10-19T17:42:01;10.30;99.90
16140;DHT22;8175;49.326;12.690;2023-10-19T17:44:27;10.20;99.90
16140;DHT22;8175;49.326;12.690;2023-10-19T17:46:53;10.30;99.90
16140;DHT22;8175;49.326;12.690;2023-10-19T17:49:19;10.20;99.90
16140;DHT22;8175;49.326;12.690;2023-10-19T17:51:45;10.20;99.90
